Atlantic Hero — C6XD5 — position and weather

sailwx.info

Track history (hours):
 
Tides and Currents Weather Stations Pressure Air Temp Water Temp Dewpoint Dewpoint Depression Visibility Wind Speed Wind Dir Waves Ship Positions

Atlantic Hero

Last reported at 2018-Apr-29 12:16 UTC. Time now 2018-May-26 21:45 UTC.
Position S 30°18' E 031°02'.
Warning: this ship's position is 27 days out of date.

Length 225 m; draft 6.3 m.

Type: Cargo ship. MMSI: 311005500.

Date/timePositionNaut miles runAvg speedWind from/ knotsBaromVisibWave heightAir tempDewpointWater temp
2018-Apr-29 12:16S 30°18' E 031°02'414.6
2018-Apr-29 12:00S 30°15' E 031°03'714.4
2018-Apr-29 11:31S 30°08' E 031°05'714.1
2018-Apr-29 11:00S 30°01' E 031°06'5 9.7
2018-Apr-29 10:30S 29°56' E 031°07'0 0.6
2018-Apr-29 10:00S 29°56' E 031°08'0 0.5
2018-Apr-29 09:30S 29°56' E 031°08'0 0.9
2018-Apr-29 09:00S 29°56' E 031°09'0 1.0
2018-Apr-29 08:30S 29°56' E 031°09'1 2.5
2018-Apr-29 08:00S 29°55' E 031°10'4 7.3
2018-Apr-29 07:30S 29°53' E 031°14'611.3
2018-Apr-29 07:00S 29°51' E 031°20'712.9
2018-Apr-29 06:30S 29°48' E 031°27'612.7
2018-Apr-29 06:00S 29°45' E 031°33'612.5
2018-Apr-29 05:30S 29°42' E 031°39'612.6
2018-Apr-29 05:00S 29°39' E 031°46'612.2
2018-Apr-29 04:30S 29°36' E 031°52'611.7
2018-Apr-29 04:00S 29°33' E 031°58'  
Track history (hours):
 
Tides and Currents Weather Stations Pressure Air Temp Water Temp Dewpoint Dewpoint Depression Visibility Wind Speed Wind Dir Waves Ship Positions

Atlantic Hero

Last reported at 2018-Apr-29 12:16 UTC. Time now 2018-May-26 21:45 UTC.
Position S 30°18' E 031°02'.
Warning: this ship's position is 27 days out of date.

Length 225 m; draft 6.3 m.

Type: Cargo ship. MMSI: 311005500.

Date/timePositionNaut miles runAvg speedWind from/ knotsBaromVisibWave heightAir tempDewpointWater temp
2018-Apr-29 12:16S 30°18' E 031°02'414.6
2018-Apr-29 12:00S 30°15' E 031°03'714.4
2018-Apr-29 11:31S 30°08' E 031°05'714.1
2018-Apr-29 11:00S 30°01' E 031°06'5 9.7
2018-Apr-29 10:30S 29°56' E 031°07'0 0.6
2018-Apr-29 10:00S 29°56' E 031°08'0 0.5
2018-Apr-29 09:30S 29°56' E 031°08'0 0.9
2018-Apr-29 09:00S 29°56' E 031°09'0 1.0
2018-Apr-29 08:30S 29°56' E 031°09'1 2.5
2018-Apr-29 08:00S 29°55' E 031°10'4 7.3
2018-Apr-29 07:30S 29°53' E 031°14'611.3
2018-Apr-29 07:00S 29°51' E 031°20'712.9
2018-Apr-29 06:30S 29°48' E 031°27'612.7
2018-Apr-29 06:00S 29°45' E 031°33'612.5
2018-Apr-29 05:30S 29°42' E 031°39'612.6
2018-Apr-29 05:00S 29°39' E 031°46'612.2
2018-Apr-29 04:30S 29°36' E 031°52'611.7
2018-Apr-29 04:00S 29°33' E 031°58'  

Dump ship's entire track history